sensor_id;sensor_type;location;lat;lon;timestamp;pressure;altitude;pressure_sealevel;temperature;humidity
73383;BME280;61600;48.126;11.542;2023-04-01T00:00:45;94434.22;;;9.38;65.23
73383;BME280;61600;48.126;11.542;2023-04-01T00:03:11;94422.56;;;9.38;65.09
73383;BME280;61600;48.126;11.542;2023-04-01T00:05:37;94423.59;;;9.50;64.91
73383;BME280;61600;48.126;11.542;2023-04-01T00:08:03;94432.13;;;9.35;65.33
73383;BME280;61600;48.126;11.542;2023-04-01T00:10:32;94437.41;;;9.40;64.81
73383;BME280;61600;48.126;11.542;2023-04-01T00:12:58;94424.03;;;9.44;64.87
73383;BME280;61600;48.126;11.542;2023-04-01T00:15:23;94419.22;;;9.41;64.84
73383;BME280;61600;48.126;11.542;2023-04-01T00:17:49;94410.47;;;9.22;65.21
73383;BME280;61600;48.126;11.542;2023-04-01T00:20:15;94415.50;;;9.37;65.05
73383;BME280;61600;48.126;11.542;2023-04-01T00:22:41;94396.72;;;9.04;65.71
73383;BME280;61600;48.126;11.542;2023-04-01T00:25:07;94405.25;;;9.12;65.32
73383;BME280;61600;48.126;11.542;2023-04-01T00:27:33;94401.66;;;9.38;64.94
73383;BME280;61600;48.126;11.542;2023-04-01T00:29:58;94402.81;;;9.46;64.43
73383;BME280;61600;48.126;11.542;2023-04-01T00:32:24;94399.97;;;9.29;64.94
73383;BME280;61600;48.126;11.542;2023-04-01T00:34:52;94401.19;;;9.23;64.83
73383;BME280;61600;48.126;11.542;2023-04-01T00:37:19;94399.22;;;9.15;64.86
73383;BME280;61600;48.126;11.542;2023-04-01T00:39:46;94401.13;;;9.36;64.34
73383;BME280;61600;48.126;11.542;2023-04-01T00:42:12;94405.88;;;9.31;64.64
73383;BME280;61600;48.126;11.542;2023-04-01T00:44:39;94408.53;;;9.22;65.00
73383;BME280;61600;48.126;11.542;2023-04-01T00:47:06;94403.19;;;9.31;64.67
73383;BME280;61600;48.126;11.542;2023-04-01T00:49:39;94393.75;;;9.28;64.78
73383;BME280;61600;48.126;11.542;2023-04-01T00:52:08;94398.84;;;9.30;64.72
73383;BME280;61600;48.126;11.542;2023-04-01T00:54:37;94404.47;;;9.33;64.58
73383;BME280;61600;48.126;11.542;2023-04-01T00:57:08;94399.22;;;9.37;64.44
73383;BME280;61600;48.126;11.542;2023-04-01T00:59:45;94398.97;;;9.47;64.42
73383;BME280;61600;48.126;11.542;2023-04-01T01:02:13;94399.91;;;9.42;64.39
73383;BME280;61600;48.126;11.542;2023-04-01T01:04:40;94399.78;;;9.25;64.53
73383;BME280;61600;48.126;11.542;2023-04-01T01:10:19;94400.88;;;9.46;63.84
73383;BME280;61600;48.126;11.542;2023-04-01T01:13:11;94411.19;;;9.58;63.50
73383;BME280;61600;48.126;11.542;2023-04-01T01:15:52;94409.19;;;9.64;63.48
73383;BME280;61600;48.126;11.542;2023-04-01T01:27:09;94395.28;;;9.43;64.11
73383;BME280;61600;48.126;11.542;2023-04-01T01:30:04;94397.25;;;9.73;62.81
73383;BME280;61600;48.126;11.542;2023-04-01T01:32:41;94396.00;;;9.57;63.64
73383;BME280;61600;48.126;11.542;2023-04-01T01:37:45;94398.97;;;9.69;63.29
73383;BME280;61600;48.126;11.542;2023-04-01T01:40:13;94401.16;;;9.59;63.55
73383;BME280;61600;48.126;11.542;2023-04-01T01:42:44;94406.19;;;9.51;63.71
73383;BME280;61600;48.126;11.542;2023-04-01T01:45:13;94386.47;;;9.60;63.61
73383;BME280;61600;48.126;11.542;2023-04-01T01:47:43;94388.81;;;9.52;64.12
73383;BME280;61600;48.126;11.542;2023-04-01T01:50:11;94376.59;;;9.64;63.43
73383;BME280;61600;48.126;11.542;2023-04-01T01:52:37;94368.47;;;9.41;63.88
73383;BME280;61600;48.126;11.542;2023-04-01T01:55:03;94389.03;;;9.65;62.97
73383;BME280;61600;48.126;11.542;2023-04-01T01:57:32;94376.16;;;9.48;63.16
73383;BME280;61600;48.126;11.542;2023-04-01T02:00:08;94393.63;;;9.78;63.03
73383;BME280;61600;48.126;11.542;2023-04-01T02:02:44;94382.88;;;9.50;63.64
73383;BME280;61600;48.126;11.542;2023-04-01T02:05:15;94396.81;;;9.58;63.56
73383;BME280;61600;48.126;11.542;2023-04-01T02:07:45;94399.53;;;9.58;63.41
73383;BME280;61600;48.126;11.542;2023-04-01T02:10:15;94393.06;;;9.45;63.42
73383;BME280;61600;48.126;11.542;2023-04-01T02:12:42;94395.47;;;9.46;63.52
73383;BME280;61600;48.126;11.542;2023-04-01T02:15:15;94391.72;;;9.56;63.05
73383;BME280;61600;48.126;11.542;2023-04-01T02:17:44;94400.31;;;9.36;63.62
73383;BME280;61600;48.126;11.542;2023-04-01T02:20:19;94407.25;;;9.42;63.60
73383;BME280;61600;48.126;11.542;2023-04-01T02:22:49;94403.22;;;9.39;63.53
73383;BME280;61600;48.126;11.542;2023-04-01T02:25:20;94399.22;;;9.37;63.24
73383;BME280;61600;48.126;11.542;2023-04-01T02:27:48;94409.41;;;9.31;63.41
73383;BME280;61600;48.126;11.542;2023-04-01T02:30:15;94404.28;;;9.52;62.80
73383;BME280;61600;48.126;11.542;2023-04-01T02:32:41;94407.19;;;9.56;62.74
73383;BME280;61600;48.126;11.542;2023-04-01T02:35:11;94401.31;;;9.40;62.90
73383;BME280;61600;48.126;11.542;2023-04-01T02:37:39;94408.06;;;9.42;62.71
73383;BME280;61600;48.126;11.542;2023-04-01T02:40:10;94397.41;;;9.46;62.63
73383;BME280;61600;48.126;11.542;2023-04-01T02:42:36;94403.84;;;9.36;62.97
73383;BME280;61600;48.126;11.542;2023-04-01T02:45:03;94411.69;;;9.38;62.86
73383;BME280;61600;48.126;11.542;2023-04-01T02:47:32;94409.66;;;9.43;62.60
73383;BME280;61600;48.126;11.542;2023-04-01T02:49:58;94406.50;;;9.28;63.06
73383;BME280;61600;48.126;11.542;2023-04-01T02:52:25;94424.84;;;9.44;62.44
73383;BME280;61600;48.126;11.542;2023-04-01T02:54:53;94408.28;;;9.32;63.13
73383;BME280;61600;48.126;11.542;2023-04-01T02:57:19;94412.81;;;9.59;62.29
73383;BME280;61600;48.126;11.542;2023-04-01T02:59:45;94413.69;;;9.46;62.81
73383;BME280;61600;48.126;11.542;2023-04-01T03:02:11;94394.69;;;9.46;62.38
73383;BME280;61600;48.126;11.542;2023-04-01T03:04:36;94410.88;;;9.37;62.78
73383;BME280;61600;48.126;11.542;2023-04-01T03:07:03;94407.56;;;9.40;62.87
73383;BME280;61600;48.126;11.542;2023-04-01T03:09:28;94412.97;;;9.40;62.92
73383;BME280;61600;48.126;11.542;2023-04-01T03:11:55;94418.16;;;9.28;63.20
73383;BME280;61600;48.126;11.542;2023-04-01T03:14:20;94415.88;;;9.44;62.62
73383;BME280;61600;48.126;11.542;2023-04-01T03:16:50;94423.16;;;9.57;62.34
73383;BME280;61600;48.126;11.542;2023-04-01T03:19:17;94416.44;;;9.54;62.26
73383;BME280;61600;48.126;11.542;2023-04-01T03:21:43;94412.34;;;9.43;62.38
73383;BME280;61600;48.126;11.542;2023-04-01T03:24:12;94420.03;;;9.41;62.32
73383;BME280;61600;48.126;11.542;2023-04-01T03:26:38;94424.81;;;9.22;63.10
73383;BME280;61600;48.126;11.542;2023-04-01T03:29:04;94421.31;;;9.44;62.62
73383;BME280;61600;48.126;11.542;2023-04-01T03:31:33;94433.50;;;9.33;62.71
73383;BME280;61600;48.126;11.542;2023-04-01T03:33:59;94416.91;;;9.12;63.20
73383;BME280;61600;48.126;11.542;2023-04-01T03:36:28;94423.75;;;9.10;63.41
73383;BME280;61600;48.126;11.542;2023-04-01T03:38:54;94430.16;;;9.14;63.48
73383;BME280;61600;48.126;11.542;2023-04-01T03:41:19;94426.97;;;8.98;63.71
73383;BME280;61600;48.126;11.542;2023-04-01T03:43:48;94422.69;;;8.97;63.83
73383;BME280;61600;48.126;11.542;2023-04-01T03:46:18;94437.38;;;8.82;64.32
73383;BME280;61600;48.126;11.542;2023-04-01T03:48:45;94423.41;;;8.89;64.14
73383;BME280;61600;48.126;11.542;2023-04-01T03:51:11;94453.00;;;8.99;64.15
73383;BME280;61600;48.126;11.542;2023-04-01T03:53:37;94439.59;;;9.16;63.43
73383;BME280;61600;48.126;11.542;2023-04-01T03:56:06;94438.53;;;9.03;63.92
73383;BME280;61600;48.126;11.542;2023-04-01T03:58:32;94443.97;;;9.03;63.94
73383;BME280;61600;48.126;11.542;2023-04-01T04:00:58;94445.91;;;8.76;65.08
73383;BME280;61600;48.126;11.542;2023-04-01T04:03:24;94444.00;;;8.90;64.63
73383;BME280;61600;48.126;11.542;2023-04-01T04:05:49;94457.63;;;8.85;64.58
73383;BME280;61600;48.126;11.542;2023-04-01T04:08:16;94452.06;;;9.17;64.03
73383;BME280;61600;48.126;11.542;2023-04-01T04:10:44;94454.63;;;8.86;64.69
73383;BME280;61600;48.126;11.542;2023-04-01T04:13:11;94448.06;;;9.01;64.44
73383;BME280;61600;48.126;11.542;2023-04-01T04:15:40;94453.69;;;9.04;64.28
73383;BME280;61600;48.126;11.542;2023-04-01T04:18:06;94459.91;;;9.05;64.40
73383;BME280;61600;48.126;11.542;2023-04-01T04:20:32;94456.78;;;9.12;64.28
73383;BME280;61600;48.126;11.542;2023-04-01T04:22:57;94446.03;;;9.20;63.94
73383;BME280;61600;48.126;11.542;2023-04-01T04:25:23;94453.97;;;9.17;64.46
73383;BME280;61600;48.126;11.542;2023-04-01T04:27:49;94428.31;;;9.00;64.68
73383;BME280;61600;48.126;11.542;2023-04-01T04:30:15;94441.31;;;9.12;64.65
73383;BME280;61600;48.126;11.542;2023-04-01T04:32:41;94449.16;;;9.14;64.32
73383;BME280;61600;48.126;11.542;2023-04-01T04:35:07;94446.78;;;8.98;65.16
73383;BME280;61600;48.126;11.542;2023-04-01T04:37:33;94446.97;;;9.02;64.83
73383;BME280;61600;48.126;11.542;2023-04-01T04:39:59;94452.53;;;9.19;64.28
73383;BME280;61600;48.126;11.542;2023-04-01T04:42:28;94457.72;;;9.07;64.45
73383;BME280;61600;48.126;11.542;2023-04-01T04:44:53;94464.53;;;9.04;64.37
73383;BME280;61600;48.126;11.542;2023-04-01T04:47:19;94460.88;;;9.23;64.00
73383;BME280;61600;48.126;11.542;2023-04-01T04:49:45;94467.44;;;9.22;64.08
73383;BME280;61600;48.126;11.542;2023-04-01T04:52:10;94464.34;;;9.37;63.82
73383;BME280;61600;48.126;11.542;2023-04-01T04:54:38;94463.53;;;9.36;63.79
73383;BME280;61600;48.126;11.542;2023-04-01T04:57:04;94474.09;;;9.38;63.68
73383;BME280;61600;48.126;11.542;2023-04-01T04:59:30;94475.00;;;9.33;63.84
73383;BME280;61600;48.126;11.542;2023-04-01T05:01:59;94471.63;;;9.50;63.07
73383;BME280;61600;48.126;11.542;2023-04-01T05:04:24;94479.22;;;9.39;63.30
73383;BME280;61600;48.126;11.542;2023-04-01T05:06:50;94473.19;;;9.42;63.33
73383;BME280;61600;48.126;11.542;2023-04-01T05:09:19;94476.50;;;9.39;62.91
73383;BME280;61600;48.126;11.542;2023-04-01T05:11:57;94469.81;;;9.59;62.44
73383;BME280;61600;48.126;11.542;2023-04-01T05:14:22;94469.50;;;9.61;62.03
73383;BME280;61600;48.126;11.542;2023-04-01T05:16:48;94476.06;;;9.24;62.72
73383;BME280;61600;48.126;11.542;2023-04-01T05:19:16;94460.50;;;9.74;61.67
73383;BME280;61600;48.126;11.542;2023-04-01T05:21:41;94470.09;;;9.35;62.20
73383;BME280;61600;48.126;11.542;2023-04-01T05:24:08;94451.06;;;9.49;61.84
73383;BME280;61600;48.126;11.542;2023-04-01T05:26:37;94465.84;;;9.43;61.72
73383;BME280;61600;48.126;11.542;2023-04-01T05:29:04;94464.69;;;9.58;61.26
73383;BME280;61600;48.126;11.542;2023-04-01T05:31:30;94467.47;;;9.66;61.49
73383;BME280;61600;48.126;11.542;2023-04-01T05:33:56;94458.00;;;9.41;61.66
73383;BME280;61600;48.126;11.542;2023-04-01T05:36:22;94464.63;;;9.71;60.87
73383;BME280;61600;48.126;11.542;2023-04-01T05:38:48;94446.00;;;9.56;61.04
73383;BME280;61600;48.126;11.542;2023-04-01T05:41:14;94455.31;;;9.41;61.36
73383;BME280;61600;48.126;11.542;2023-04-01T05:43:41;94464.28;;;9.28;61.77
73383;BME280;61600;48.126;11.542;2023-04-01T05:46:08;94459.31;;;9.44;61.21
73383;BME280;61600;48.126;11.542;2023-04-01T05:48:34;94457.09;;;9.46;60.93
73383;BME280;61600;48.126;11.542;2023-04-01T05:51:03;94450.00;;;9.59;60.73
73383;BME280;61600;48.126;11.542;2023-04-01T05:53:29;94463.84;;;9.71;60.26
73383;BME280;61600;48.126;11.542;2023-04-01T05:55:55;94470.75;;;9.77;60.21
73383;BME280;61600;48.126;11.542;2023-04-01T05:58:21;94459.38;;;9.75;59.98
73383;BME280;61600;48.126;11.542;2023-04-01T06:00:46;94463.75;;;9.62;60.45
73383;BME280;61600;48.126;11.542;2023-04-01T06:03:12;94460.31;;;9.70;59.81
73383;BME280;61600;48.126;11.542;2023-04-01T06:05:41;94466.94;;;9.78;59.77
73383;BME280;61600;48.126;11.542;2023-04-01T06:08:13;94471.31;;;9.87;59.65
73383;BME280;61600;48.126;11.542;2023-04-01T06:29:58;94470.25;;;9.97;57.98
73383;BME280;61600;48.126;11.542;2023-04-01T06:32:37;94465.16;;;10.04;57.96
73383;BME280;61600;48.126;11.542;2023-04-01T06:38:21;94463.13;;;10.10;57.95
73383;BME280;61600;48.126;11.542;2023-04-01T06:41:13;94477.13;;;10.17;57.35
73383;BME280;61600;48.126;11.542;2023-04-01T06:44:13;94475.28;;;10.12;57.03
73383;BME280;61600;48.126;11.542;2023-04-01T06:46:52;94469.63;;;10.22;57.12
73383;BME280;61600;48.126;11.542;2023-04-01T06:52:35;94468.63;;;10.18;57.21
73383;BME280;61600;48.126;11.542;2023-04-01T06:55:35;94469.00;;;10.25;56.92
73383;BME280;61600;48.126;11.542;2023-04-01T06:58:05;94460.72;;;10.30;56.51
73383;BME280;61600;48.126;11.542;2023-04-01T07:00:40;94470.44;;;10.23;56.67
73383;BME280;61600;48.126;11.542;2023-04-01T07:05:49;94483.94;;;10.45;56.12
73383;BME280;61600;48.126;11.542;2023-04-01T07:08:23;94479.38;;;10.54;55.50
73383;BME280;61600;48.126;11.542;2023-04-01T07:11:03;94487.72;;;10.58;55.38
73383;BME280;61600;48.126;11.542;2023-04-01T07:13:58;94480.03;;;10.29;55.76
73383;BME280;61600;48.126;11.542;2023-04-01T07:16:44;94490.47;;;10.35;55.68
73383;BME280;61600;48.126;11.542;2023-04-01T07:19:24;94480.09;;;10.37;56.04
73383;BME280;61600;48.126;11.542;2023-04-01T07:21:56;94474.31;;;10.70;55.09
73383;BME280;61600;48.126;11.542;2023-04-01T07:24:27;94477.03;;;10.70;55.33
73383;BME280;61600;48.126;11.542;2023-04-01T07:26:56;94441.25;;;10.45;55.20
73383;BME280;61600;48.126;11.542;2023-04-01T07:29:22;94479.47;;;10.40;56.01
73383;BME280;61600;48.126;11.542;2023-04-01T07:34:24;94451.91;;;10.64;55.24
73383;BME280;61600;48.126;11.542;2023-04-01T07:40:11;94488.28;;;10.85;55.22
73383;BME280;61600;48.126;11.542;2023-04-01T07:54:17;94479.38;;;11.02;54.42
73383;BME280;61600;48.126;11.542;2023-04-01T08:05:14;94482.53;;;11.95;51.80
73383;BME280;61600;48.126;11.542;2023-04-01T08:07:48;94481.09;;;11.97;51.73
73383;BME280;61600;48.126;11.542;2023-04-01T08:10:29;94508.81;;;11.82;52.24
73383;BME280;61600;48.126;11.542;2023-04-01T08:13:05;94497.44;;;11.72;52.04
73383;BME280;61600;48.126;11.542;2023-04-01T08:18:47;94489.72;;;11.48;52.29
73383;BME280;61600;48.126;11.542;2023-04-01T08:21:22;94492.28;;;11.70;51.56
73383;BME280;61600;48.126;11.542;2023-04-01T08:23:51;94478.00;;;11.65;52.11
73383;BME280;61600;48.126;11.542;2023-04-01T08:26:37;94477.44;;;11.85;50.98
73383;BME280;61600;48.126;11.542;2023-04-01T08:29:18;94465.19;;;11.48;51.87
73383;BME280;61600;48.126;11.542;2023-04-01T08:34:37;94473.53;;;11.34;51.71
73383;BME280;61600;48.126;11.542;2023-04-01T08:37:07;94482.19;;;11.53;52.22
73383;BME280;61600;48.126;11.542;2023-04-01T08:39:38;94477.25;;;11.98;51.32
73383;BME280;61600;48.126;11.542;2023-04-01T08:45:31;94459.75;;;12.08;51.29
73383;BME280;61600;48.126;11.542;2023-04-01T08:51:43;94452.28;;;11.71;51.65
73383;BME280;61600;48.126;11.542;2023-04-01T09:02:07;94477.41;;;11.68;52.21
73383;BME280;61600;48.126;11.542;2023-04-01T09:07:47;94458.34;;;11.85;51.27
73383;BME280;61600;48.126;11.542;2023-04-01T09:16:21;94459.25;;;12.15;50.96
73383;BME280;61600;48.126;11.542;2023-04-01T09:21:40;94449.75;;;12.38;49.64
73383;BME280;61600;48.126;11.542;2023-04-01T09:24:26;94445.63;;;12.70;49.11
73383;BME280;61600;48.126;11.542;2023-04-01T09:35:46;94453.50;;;12.63;48.54
73383;BME280;61600;48.126;11.542;2023-04-01T09:38:29;94448.50;;;12.73;48.77
73383;BME280;61600;48.126;11.542;2023-04-01T09:40:58;94456.31;;;12.37;48.35
73383;BME280;61600;48.126;11.542;2023-04-01T09:43:45;94433.13;;;12.60;48.33
73383;BME280;61600;48.126;11.542;2023-04-01T09:46:26;94449.78;;;12.67;48.77
73383;BME280;61600;48.126;11.542;2023-04-01T09:51:49;94426.94;;;13.18;47.32
73383;BME280;61600;48.126;11.542;2023-04-01T10:00:23;94426.81;;;13.35;46.28
73383;BME280;61600;48.126;11.542;2023-04-01T10:14:37;94408.28;;;13.82;45.75
73383;BME280;61600;48.126;11.542;2023-04-01T10:23:04;94410.22;;;13.40;45.85
73383;BME280;61600;48.126;11.542;2023-04-01T10:37:34;94421.47;;;13.80;45.45
73383;BME280;61600;48.126;11.542;2023-04-01T10:43:16;94401.94;;;13.70;46.21
73383;BME280;61600;48.126;11.542;2023-04-01T10:46:08;94437.19;;;13.21;47.13
73383;BME280;61600;48.126;11.542;2023-04-01T10:49:27;94417.41;;;13.66;46.87
73383;BME280;61600;48.126;11.542;2023-04-01T11:01:00;94423.53;;;13.21;49.00
73383;BME280;61600;48.126;11.542;2023-04-01T11:09:42;94443.84;;;13.03;51.99
73383;BME280;61600;48.126;11.542;2023-04-01T11:20:42;94458.22;;;12.45;55.06
73383;BME280;61600;48.126;11.542;2023-04-01T11:23:41;94463.28;;;12.17;56.33
73383;BME280;61600;48.126;11.542;2023-04-01T11:31:28;94447.19;;;12.41;55.71
73383;BME280;61600;48.126;11.542;2023-04-01T11:39:57;94456.03;;;12.30;54.10
73383;BME280;61600;48.126;11.542;2023-04-01T11:42:43;94455.22;;;12.29;53.80
73383;BME280;61600;48.126;11.542;2023-04-01T11:45:41;94483.13;;;11.58;56.75
73383;BME280;61600;48.126;11.542;2023-04-01T11:51:02;94484.75;;;11.59;59.48
73383;BME280;61600;48.126;11.542;2023-04-01T11:59:14;94494.78;;;11.24;63.02
73383;BME280;61600;48.126;11.542;2023-04-01T12:02:38;94508.06;;;11.17;63.01
73383;BME280;61600;48.126;11.542;2023-04-01T12:10:04;94497.69;;;10.71;64.18
73383;BME280;61600;48.126;11.542;2023-04-01T12:12:44;94510.16;;;10.72;64.86
73383;BME280;61600;48.126;11.542;2023-04-01T12:20:49;94504.19;;;10.61;64.64
73383;BME280;61600;48.126;11.542;2023-04-01T12:35:39;94466.00;;;10.35;64.94
73383;BME280;61600;48.126;11.542;2023-04-01T12:38:36;94494.31;;;10.34;66.44
73383;BME280;61600;48.126;11.542;2023-04-01T12:41:29;94491.59;;;10.34;65.26
73383;BME280;61600;48.126;11.542;2023-04-01T12:50:19;94484.31;;;10.52;63.96
73383;BME280;61600;48.126;11.542;2023-04-01T13:01:03;94492.03;;;10.28;64.41
73383;BME280;61600;48.126;11.542;2023-04-01T13:03:58;94507.56;;;10.27;63.96
73383;BME280;61600;48.126;11.542;2023-04-01T13:06:52;94498.13;;;10.11;64.14
73383;BME280;61600;48.126;11.542;2023-04-01T13:15:26;94497.91;;;10.52;63.32
73383;BME280;61600;48.126;11.542;2023-04-01T13:20:54;94509.06;;;10.73;63.02
73383;BME280;61600;48.126;11.542;2023-04-01T13:23:51;94509.25;;;10.85;63.51
73383;BME280;61600;48.126;11.542;2023-04-01T13:26:28;94510.78;;;10.69;63.73
73383;BME280;61600;48.126;11.542;2023-04-01T13:29:14;94515.59;;;10.72;63.91
73383;BME280;61600;48.126;11.542;2023-04-01T13:43:00;94529.03;;;10.15;66.96
73383;BME280;61600;48.126;11.542;2023-04-01T13:56:28;94524.41;;;10.69;65.76
73383;BME280;61600;48.126;11.542;2023-04-01T14:10:55;94517.56;;;10.80;65.13
73383;BME280;61600;48.126;11.542;2023-04-01T14:13:48;94513.34;;;10.74;66.14
73383;BME280;61600;48.126;11.542;2023-04-01T14:36:32;94530.19;;;10.84;63.73
73383;BME280;61600;48.126;11.542;2023-04-01T14:39:38;94504.31;;;10.95;64.16
73383;BME280;61600;48.126;11.542;2023-04-01T14:50:31;94541.97;;;11.02;64.93
73383;BME280;61600;48.126;11.542;2023-04-01T14:53:27;94541.94;;;10.93;65.30
73383;BME280;61600;48.126;11.542;2023-04-01T14:55:56;94526.59;;;11.06;65.39
73383;BME280;61600;48.126;11.542;2023-04-01T14:58:25;94543.22;;;10.96;65.96
73383;BME280;61600;48.126;11.542;2023-04-01T15:03:36;94516.81;;;10.96;65.60
73383;BME280;61600;48.126;11.542;2023-04-01T15:06:52;94527.94;;;10.78;65.31
73383;BME280;61600;48.126;11.542;2023-04-01T15:09:28;94520.72;;;10.73;65.22
73383;BME280;61600;48.126;11.542;2023-04-01T15:20:47;94514.31;;;10.69;63.87
73383;BME280;61600;48.126;11.542;2023-04-01T15:26:13;94525.97;;;11.00;62.17
73383;BME280;61600;48.126;11.542;2023-04-01T15:28:53;94536.56;;;11.11;61.67
73383;BME280;61600;48.126;11.542;2023-04-01T15:31:50;94536.56;;;11.11;61.26
73383;BME280;61600;48.126;11.542;2023-04-01T15:37:29;94538.38;;;11.41;61.11
73383;BME280;61600;48.126;11.542;2023-04-01T15:45:45;94547.63;;;11.88;58.86
73383;BME280;61600;48.126;11.542;2023-04-01T15:57:15;94557.34;;;11.63;57.94
73383;BME280;61600;48.126;11.542;2023-04-01T16:05:50;94551.06;;;11.54;56.77
73383;BME280;61600;48.126;11.542;2023-04-01T16:13:40;94517.88;;;11.35;56.52
73383;BME280;61600;48.126;11.542;2023-04-01T16:16:28;94548.84;;;11.56;56.67
73383;BME280;61600;48.126;11.542;2023-04-01T16:19:22;94561.28;;;11.31;57.33
73383;BME280;61600;48.126;11.542;2023-04-01T16:22:14;94557.28;;;11.29;57.24
73383;BME280;61600;48.126;11.542;2023-04-01T16:24:56;94548.44;;;11.23;56.59
73383;BME280;61600;48.126;11.542;2023-04-01T16:27:32;94549.41;;;11.19;57.08
73383;BME280;61600;48.126;11.542;2023-04-01T16:33:03;94536.38;;;11.07;56.69
73383;BME280;61600;48.126;11.542;2023-04-01T16:35:46;94543.50;;;11.25;56.86
73383;BME280;61600;48.126;11.542;2023-04-01T16:41:00;94549.53;;;11.14;56.83
73383;BME280;61600;48.126;11.542;2023-04-01T16:43:52;94549.91;;;11.29;56.74
73383;BME280;61600;48.126;11.542;2023-04-01T16:51:45;94566.38;;;10.85;57.29
73383;BME280;61600;48.126;11.542;2023-04-01T16:59:44;94560.81;;;10.98;56.18
73383;BME280;61600;48.126;11.542;2023-04-01T17:02:14;94571.88;;;11.02;55.79
73383;BME280;61600;48.126;11.542;2023-04-01T17:10:00;94598.31;;;10.71;56.61
73383;BME280;61600;48.126;11.542;2023-04-01T17:17:44;94572.56;;;10.77;56.27
73383;BME280;61600;48.126;11.542;2023-04-01T17:20:31;94578.81;;;10.77;56.53
73383;BME280;61600;48.126;11.542;2023-04-01T17:23:14;94577.44;;;10.88;56.41
73383;BME280;61600;48.126;11.542;2023-04-01T17:36:53;94587.03;;;10.86;55.93
73383;BME280;61600;48.126;11.542;2023-04-01T17:42:07;94599.75;;;10.77;56.42
73383;BME280;61600;48.126;11.542;2023-04-01T17:44:53;94593.22;;;10.78;56.25
73383;BME280;61600;48.126;11.542;2023-04-01T17:50:13;94606.19;;;10.50;56.42
73383;BME280;61600;48.126;11.542;2023-04-01T17:52:47;94600.34;;;10.65;56.60
73383;BME280;61600;48.126;11.542;2023-04-01T17:55:43;94599.38;;;10.61;56.68
73383;BME280;61600;48.126;11.542;2023-04-01T17:58:50;94600.41;;;10.74;56.29
73383;BME280;61600;48.126;11.542;2023-04-01T18:07:20;94616.53;;;10.70;56.62
73383;BME280;61600;48.126;11.542;2023-04-01T18:13:13;94622.41;;;10.64;56.40
73383;BME280;61600;48.126;11.542;2023-04-01T18:24:11;94625.38;;;10.53;57.46
73383;BME280;61600;48.126;11.542;2023-04-01T18:26:44;94623.16;;;10.56;57.79
73383;BME280;61600;48.126;11.542;2023-04-01T18:32:28;94649.19;;;10.48;59.23
73383;BME280;61600;48.126;11.542;2023-04-01T18:35:12;94644.25;;;10.14;59.68
73383;BME280;61600;48.126;11.542;2023-04-01T18:37:50;94652.00;;;10.07;60.75
73383;BME280;61600;48.126;11.542;2023-04-01T18:40:28;94657.03;;;10.27;60.31
73383;BME280;61600;48.126;11.542;2023-04-01T18:43:08;94648.78;;;10.19;60.90
73383;BME280;61600;48.126;11.542;2023-04-01T18:48:27;94654.22;;;10.19;61.78
73383;BME280;61600;48.126;11.542;2023-04-01T18:51:00;94665.91;;;10.19;61.54
73383;BME280;61600;48.126;11.542;2023-04-01T18:56:29;94658.94;;;10.13;61.51
73383;BME280;61600;48.126;11.542;2023-04-01T18:59:00;94660.47;;;10.19;61.83
73383;BME280;61600;48.126;11.542;2023-04-01T19:01:46;94666.56;;;10.25;61.65
73383;BME280;61600;48.126;11.542;2023-04-01T19:04:16;94675.06;;;10.23;61.84
73383;BME280;61600;48.126;11.542;2023-04-01T19:06:55;94675.84;;;10.10;62.16
73383;BME280;61600;48.126;11.542;2023-04-01T19:09:48;94665.47;;;10.26;62.29
73383;BME280;61600;48.126;11.542;2023-04-01T19:26:12;94675.47;;;10.17;62.26
73383;BME280;61600;48.126;11.542;2023-04-01T19:34:45;94701.22;;;10.19;62.24
73383;BME280;61600;48.126;11.542;2023-04-01T19:37:39;94699.94;;;10.39;61.49
73383;BME280;61600;48.126;11.542;2023-04-01T19:45:33;94704.94;;;10.10;62.04
73383;BME280;61600;48.126;11.542;2023-04-01T19:50:50;94707.97;;;10.08;61.96
73383;BME280;61600;48.126;11.542;2023-04-01T19:56:35;94728.09;;;9.93;61.75
73383;BME280;61600;48.126;11.542;2023-04-01T19:59:19;94716.63;;;9.83;62.39
73383;BME280;61600;48.126;11.542;2023-04-01T20:10:56;94735.97;;;9.81;62.22
73383;BME280;61600;48.126;11.542;2023-04-01T20:13:36;94730.72;;;9.71;62.58
73383;BME280;61600;48.126;11.542;2023-04-01T20:16:09;94729.31;;;9.74;62.65
73383;BME280;61600;48.126;11.542;2023-04-01T20:18:47;94736.38;;;9.88;62.12
73383;BME280;61600;48.126;11.542;2023-04-01T20:24:45;94732.34;;;9.59;63.01
73383;BME280;61600;48.126;11.542;2023-04-01T20:29:47;94738.28;;;9.88;62.22
73383;BME280;61600;48.126;11.542;2023-04-01T20:35:18;94740.88;;;9.66;63.02
73383;BME280;61600;48.126;11.542;2023-04-01T20:37:52;94746.81;;;9.68;62.54
73383;BME280;61600;48.126;11.542;2023-04-01T20:40:31;94750.66;;;9.80;62.36
73383;BME280;61600;48.126;11.542;2023-04-01T20:46:07;94754.16;;;9.94;61.89
73383;BME280;61600;48.126;11.542;2023-04-01T20:51:38;94747.00;;;9.71;62.42
73383;BME280;61600;48.126;11.542;2023-04-01T20:54:30;94748.59;;;9.99;61.81
73383;BME280;61600;48.126;11.542;2023-04-01T21:02:52;94757.56;;;10.00;61.56
73383;BME280;61600;48.126;11.542;2023-04-01T21:05:40;94754.34;;;9.98;61.35
73383;BME280;61600;48.126;11.542;2023-04-01T21:11:31;94753.06;;;9.95;61.58
73383;BME280;61600;48.126;11.542;2023-04-01T21:14:43;94757.69;;;9.95;61.74
73383;BME280;61600;48.126;11.542;2023-04-01T21:20:11;94755.25;;;9.80;62.08
73383;BME280;61600;48.126;11.542;2023-04-01T21:25:27;94756.28;;;9.84;61.92
73383;BME280;61600;48.126;11.542;2023-04-01T21:28:24;94758.59;;;9.63;62.26
73383;BME280;61600;48.126;11.542;2023-04-01T21:34:10;94764.50;;;9.79;62.02
73383;BME280;61600;48.126;11.542;2023-04-01T21:39:42;94771.69;;;9.88;61.77
73383;BME280;61600;48.126;11.542;2023-04-01T21:45:18;94776.09;;;9.98;61.55